ěÝzenÝ letovÚho provozu ╚eskÚ republiky
Letiste: LKPD Aktualizace: 21.01.2020 22:00:26  UTC
 METAR LKPD 21.01. 22:00 ...
METAR LKPD 212200Z 25004KT 9999 OVC008 M02/M04 Q1038 RMK GRN=
 TAF LKPD 21.01. 17:00 ...
TAF LKPD 211700Z 2118/2218 25005KT 9999 OVC010      TEMPO 2119/2209 4000 BR BKN006      PROB30 TEMPO 2201/2207 0700 FZFG OVC002      BECMG 2209/2212 27010KT BKN022      TEMPO 2215/2218 27014KT BKN013=